createdAt,value
2019-04-16T00:00:21.529Z,101869.19
2019-04-16T00:01:22.536Z,101869.09
2019-04-16T00:02:22.645Z,101868.69
2019-04-16T00:03:23.882Z,101868.70
2019-04-16T00:04:24.995Z,101868.72
2019-04-16T00:05:27.441Z,101868.52
2019-04-16T00:06:23.592Z,101868.61
2019-04-16T00:07:25.300Z,101868.63
2019-04-16T00:08:28.066Z,101868.81
2019-04-16T00:09:26.166Z,101867.76
2019-04-16T00:10:27.905Z,101867.02
2019-04-16T00:11:28.850Z,101866.13
2019-04-16T00:12:29.644Z,101864.88
2019-04-16T00:13:30.495Z,101864.47
2019-04-16T00:14:32.087Z,101863.67
2019-04-16T00:15:31.106Z,101862.67
2019-04-16T00:16:31.989Z,101861.86
2019-04-16T00:17:32.072Z,101860.59
2019-04-16T00:18:32.387Z,101859.42
2019-04-16T00:19:34.733Z,101858.62
2019-04-16T00:20:36.702Z,101858.22
2019-04-16T00:21:33.448Z,101857.14
2019-04-16T00:22:35.348Z,101856.41
2019-04-16T00:23:35.555Z,101855.73
2019-04-16T00:24:35.934Z,101854.56
2019-04-16T00:25:36.864Z,101853.61
2019-04-16T00:26:36.924Z,101852.77
2019-04-16T00:27:37.875Z,101851.67
2019-04-16T00:28:38.137Z,101851.09
2019-04-16T00:28:46.713Z,101846.48
2019-04-16T00:29:48.663Z,101845.71
2019-04-16T00:30:49.102Z,101845.80
2019-04-16T00:31:50.069Z,101845.29
2019-04-16T00:32:51.003Z,101845.41
2019-04-16T00:33:50.983Z,101844.98
2019-04-16T00:34:51.029Z,101844.64
2019-04-16T00:35:52.012Z,101844.22
2019-04-16T00:36:52.997Z,101844.30
2019-04-16T00:37:53.021Z,101844.30
2019-04-16T00:38:54.685Z,101843.91
2019-04-16T00:39:56.124Z,101843.79
2019-04-16T00:40:54.108Z,101843.97
2019-04-16T00:41:55.895Z,101843.27
2019-04-16T00:42:56.084Z,101842.27
2019-04-16T00:43:56.073Z,101841.58
2019-04-16T00:44:56.140Z,101840.89
2019-04-16T00:45:56.294Z,101840.42
2019-04-16T00:46:56.422Z,101839.56
2019-04-16T00:47:55.504Z,101839.21
2019-04-16T00:48:55.744Z,101838.09
2019-04-16T00:49:58.849Z,101837.33
2019-04-16T00:50:55.968Z,101836.80
2019-04-16T00:51:55.982Z,101836.20
2019-04-16T00:52:56.778Z,101835.53
2019-04-16T00:53:58.910Z,101835.17
2019-04-16T00:54:57.870Z,101834.58
2019-04-16T00:55:57.899Z,101834.05
2019-04-16T00:56:59.662Z,101833.72
2019-04-16T00:58:00.574Z,101833.53
2019-04-16T00:59:01.475Z,101833.20
2019-04-16T01:00:01.445Z,101832.42
2019-04-16T01:01:01.568Z,101832.48
2019-04-16T01:02:02.087Z,101832.33
2019-04-16T01:03:02.644Z,101832.14
2019-04-16T01:04:03.143Z,101831.89
2019-04-16T01:05:02.762Z,101832.03
2019-04-16T01:06:06.752Z,101831.44
2019-04-16T01:07:03.402Z,101831.03
2019-04-16T01:08:05.239Z,101830.50
2019-04-16T01:09:05.528Z,101830.17
2019-04-16T01:10:05.803Z,101829.64
2019-04-16T01:11:06.865Z,101828.89
2019-04-16T01:12:06.496Z,101828.52
2019-04-16T01:13:07.421Z,101827.60
2019-04-16T01:14:09.254Z,101827.19
2019-04-16T01:15:10.069Z,101826.00
2019-04-16T01:16:10.934Z,101824.91
2019-04-16T01:17:11.705Z,101823.81
2019-04-16T01:18:12.585Z,101823.25
2019-04-16T01:19:12.626Z,101822.66
2019-04-16T01:20:13.588Z,101821.73
2019-04-16T01:21:14.834Z,101820.74
2019-04-16T01:22:15.712Z,101819.89
2019-04-16T01:23:17.488Z,101819.30
2019-04-16T01:24:14.174Z,101818.91
2019-04-16T01:25:15.264Z,101817.89
2019-04-16T01:26:15.477Z,101817.41
2019-04-16T01:26:24.230Z,101806.77
2019-04-16T01:27:28.564Z,101806.17
2019-04-16T01:28:25.654Z,101806.68
2019-04-16T01:29:26.666Z,101806.26
2019-04-16T01:30:27.566Z,101805.78
2019-04-16T01:31:28.305Z,101805.94
2019-04-16T01:32:29.040Z,101805.70
2019-04-16T01:33:29.924Z,101805.81
2019-04-16T01:34:30.666Z,101805.58
2019-04-16T01:35:31.557Z,101805.49
2019-04-16T01:36:32.239Z,101805.06
2019-04-16T01:37:33.005Z,101804.90
2019-04-16T01:38:33.703Z,101805.02
2019-04-16T01:39:34.536Z,101804.76
2019-04-16T01:40:35.393Z,101804.76
2019-04-16T01:41:35.450Z,101804.81
2019-04-16T01:42:36.389Z,101804.29
2019-04-16T01:43:37.364Z,101804.22
2019-04-16T01:44:38.146Z,101803.94
2019-04-16T01:45:38.216Z,101803.34
2019-04-16T01:46:38.896Z,101802.64
2019-04-16T01:47:39.724Z,101801.95
2019-04-16T01:48:40.594Z,101801.69
2019-04-16T01:49:42.216Z,101801.05
2019-04-16T01:50:43.564Z,101800.78
2019-04-16T01:51:44.588Z,101800.02
2019-04-16T01:52:42.667Z,101799.72
2019-04-16T01:53:44.431Z,101798.69
2019-04-16T01:54:45.283Z,101798.08
2019-04-16T01:55:45.415Z,101797.38
2019-04-16T01:56:45.842Z,101796.53
2019-04-16T01:57:46.773Z,101795.83
2019-04-16T01:58:47.596Z,101795.48
2019-04-16T01:59:47.870Z,101794.70
2019-04-16T02:00:47.960Z,101794.25
2019-04-16T02:01:48.125Z,101793.84
2019-04-16T02:02:48.984Z,101793.31
2019-04-16T02:03:49.652Z,101793.33
2019-04-16T02:04:52.128Z,101792.56
2019-04-16T02:05:54.627Z,101792.30
2019-04-16T02:06:50.169Z,101791.63
2019-04-16T02:07:52.143Z,101791.12
2019-04-16T02:08:52.993Z,101791.72
2019-04-16T02:09:53.038Z,101791.47
2019-04-16T02:10:54.008Z,101790.85
2019-04-16T02:11:54.900Z,101790.69
2019-04-16T02:12:55.771Z,101790.60
2019-04-16T02:13:56.677Z,101790.27
2019-04-16T02:14:57.294Z,101789.69
2019-04-16T02:15:58.040Z,101789.23
2019-04-16T02:16:58.841Z,101788.73
2019-04-16T02:17:07.384Z,101781.63
2019-04-16T02:18:09.258Z,101781.39
2019-04-16T02:19:10.196Z,101781.39
2019-04-16T02:20:09.878Z,101780.95
2019-04-16T02:21:11.374Z,101781.11
2019-04-16T02:22:13.675Z,101780.78
2019-04-16T02:23:13.537Z,101780.53
2019-04-16T02:24:11.859Z,101780.36
2019-04-16T02:25:13.652Z,101779.86
2019-04-16T02:26:12.864Z,101779.86
2019-04-16T02:27:14.684Z,101780.02
2019-04-16T02:28:15.434Z,101779.86
2019-04-16T02:29:16.346Z,101780.20
2019-04-16T02:30:17.392Z,101779.77
2019-04-16T02:31:17.264Z,101779.55
2019-04-16T02:32:19.043Z,101779.45
2019-04-16T02:33:19.999Z,101779.70
2019-04-16T02:34:20.715Z,101779.56
2019-04-16T02:35:21.577Z,101779.81
2019-04-16T02:36:22.580Z,101778.80
2019-04-16T02:37:23.537Z,101778.91
2019-04-16T02:38:23.592Z,101779.58
2019-04-16T02:39:46.274Z,101779.69
2019-04-16T02:40:24.298Z,101779.53
2019-04-16T02:41:26.228Z,101779.89
2019-04-16T02:42:30.695Z,101779.99
2019-04-16T02:43:26.790Z,101779.77
2019-04-16T02:44:28.808Z,101780.02
2019-04-16T02:45:28.089Z,101780.03
2019-04-16T02:46:32.266Z,101779.70
2019-04-16T02:47:29.972Z,101780.05
2019-04-16T02:48:31.554Z,101779.88
2019-04-16T02:49:32.386Z,101779.48
2019-04-16T02:50:33.202Z,101779.32
2019-04-16T02:51:39.800Z,101779.88
2019-04-16T02:52:33.008Z,101779.55
2019-04-16T02:53:34.965Z,101779.20
2019-04-16T02:54:35.114Z,101778.70
2019-04-16T02:55:42.538Z,101778.81
2019-04-16T02:56:35.761Z,101778.48
2019-04-16T02:57:37.466Z,101778.30
2019-04-16T02:58:38.178Z,101778.16
2019-04-16T02:59:38.324Z,101777.73
2019-04-16T03:00:39.313Z,101777.67
2019-04-16T03:01:39.441Z,101777.25
2019-04-16T03:02:39.499Z,101776.83
2019-04-16T03:03:40.455Z,101776.06
2019-04-16T03:04:41.335Z,101775.56
2019-04-16T03:05:42.278Z,101774.89
2019-04-16T03:06:43.273Z,101774.89
2019-04-16T03:07:43.377Z,101774.64
2019-04-16T03:08:44.216Z,101774.39
2019-04-16T03:09:45.040Z,101773.64
2019-04-16T03:10:45.413Z,101773.47
2019-04-16T03:11:45.576Z,101772.84
2019-04-16T03:12:45.935Z,101772.01
2019-04-16T03:12:54.542Z,101768.08
2019-04-16T03:13:59.211Z,101767.66
2019-04-16T03:15:00.844Z,101767.97
2019-04-16T03:15:56.435Z,101767.89
2019-04-16T03:16:57.660Z,101767.30
2019-04-16T03:17:56.771Z,101766.72
2019-04-16T03:18:57.863Z,101766.27
2019-04-16T03:19:57.939Z,101766.44
2019-04-16T03:20:58.408Z,101766.11
2019-04-16T03:22:02.257Z,101766.02
2019-04-16T03:22:59.220Z,101765.86
2019-04-16T03:24:01.173Z,101765.91
2019-04-16T03:25:02.083Z,101765.86
2019-04-16T03:26:03.000Z,101766.36
2019-04-16T03:27:05.128Z,101766.19
2019-04-16T03:28:03.746Z,101766.04
2019-04-16T03:29:05.648Z,101765.61
2019-04-16T03:30:06.559Z,101765.63
2019-04-16T03:31:08.885Z,101765.73
2019-04-16T03:32:06.786Z,101765.25
2019-04-16T03:33:12.311Z,101764.77
2019-04-16T03:34:06.923Z,101764.36
2019-04-16T03:35:08.902Z,101763.80
2019-04-16T03:36:09.753Z,101763.14
2019-04-16T03:37:10.538Z,101763.14
2019-04-16T03:38:11.069Z,101762.49
2019-04-16T03:39:13.226Z,101762.48
2019-04-16T03:40:17.854Z,101762.51
2019-04-16T03:41:11.191Z,101762.16
2019-04-16T03:42:13.084Z,101762.02
2019-04-16T03:43:13.965Z,101762.02
2019-04-16T03:44:13.491Z,101761.70
2019-04-16T03:45:15.281Z,101761.20
2019-04-16T03:46:16.058Z,101760.88
2019-04-16T03:47:19.118Z,101760.53
2019-04-16T03:48:16.768Z,101760.23
2019-04-16T03:49:18.532Z,101759.58
2019-04-16T03:50:19.253Z,101758.98
2019-04-16T03:51:19.791Z,101758.47
2019-04-16T03:52:20.657Z,101758.59
2019-04-16T03:53:21.385Z,101758.41
2019-04-16T03:54:23.164Z,101757.94
2019-04-16T03:55:24.961Z,101756.66
2019-04-16T03:56:22.679Z,101756.09
2019-04-16T03:57:24.523Z,101755.19
2019-04-16T03:58:25.217Z,101754.79
2019-04-16T03:59:25.953Z,101754.11
2019-04-16T04:00:26.689Z,101753.46
2019-04-16T04:01:27.419Z,101752.70
2019-04-16T04:02:28.276Z,101751.94
2019-04-16T04:03:28.337Z,101750.88
2019-04-16T04:04:30.055Z,101749.78
2019-04-16T04:05:29.057Z,101748.80
2019-04-16T04:06:30.999Z,101747.44
2019-04-16T04:07:31.830Z,101746.28
2019-04-16T04:08:32.615Z,101744.59
2019-04-16T04:08:41.199Z,101730.05
2019-04-16T04:09:42.233Z,101730.22
2019-04-16T04:10:42.978Z,101730.39
2019-04-16T04:11:43.804Z,101729.83
2019-04-16T04:12:45.610Z,101730.33
2019-04-16T04:13:49.717Z,101729.98
2019-04-16T04:14:45.269Z,101730.10
2019-04-16T04:15:46.320Z,101730.34
2019-04-16T04:16:47.090Z,101730.45
2019-04-16T04:17:47.317Z,101730.58
2019-04-16T04:18:47.324Z,101730.59
2019-04-16T04:19:47.437Z,101731.02
2019-04-16T04:20:50.502Z,101731.61
2019-04-16T04:21:50.667Z,101731.75
2019-04-16T04:22:48.452Z,101732.33
2019-04-16T04:23:50.407Z,101732.73
2019-04-16T04:24:51.267Z,101733.73
2019-04-16T04:25:51.954Z,101734.73
2019-04-16T04:26:52.776Z,101735.00
2019-04-16T04:27:53.747Z,101736.19
2019-04-16T04:28:54.617Z,101736.84
2019-04-16T04:29:56.519Z,101738.02
2019-04-16T04:30:57.769Z,101738.19
2019-04-16T04:31:55.646Z,101739.09
2019-04-16T04:32:57.569Z,101739.41
2019-04-16T04:33:57.361Z,101740.58
2019-04-16T04:34:59.222Z,101741.23
2019-04-16T04:35:59.126Z,101741.52
2019-04-16T04:37:00.989Z,101742.77
2019-04-16T04:38:03.966Z,101743.41
2019-04-16T04:39:01.533Z,101744.23
2019-04-16T04:40:03.381Z,101744.72
2019-04-16T04:41:04.183Z,101745.37
2019-04-16T04:42:04.901Z,101745.92
2019-04-16T04:43:04.662Z,101746.99
2019-04-16T04:44:05.450Z,101747.94
2019-04-16T04:45:08.961Z,101748.53
2019-04-16T04:46:06.327Z,101749.57
2019-04-16T04:47:08.145Z,101749.63
2019-04-16T04:48:11.117Z,101750.37
2019-04-16T04:49:09.175Z,101751.34
2019-04-16T04:50:09.593Z,101751.56
2019-04-16T04:51:11.481Z,101752.55
2019-04-16T04:52:14.720Z,101753.11
2019-04-16T04:53:12.110Z,101753.92
2019-04-16T04:54:13.356Z,101754.97
2019-04-16T04:55:13.197Z,101755.67
2019-04-16T04:56:14.838Z,101756.66
2019-04-16T04:57:15.697Z,101757.44
2019-04-16T04:58:15.462Z,101758.23
2019-04-16T04:59:16.487Z,101758.80
2019-04-16T05:00:17.297Z,101759.51
2019-04-16T05:01:18.267Z,101760.22
2019-04-16T05:02:19.094Z,101761.09
2019-04-16T05:03:19.898Z,101761.87
2019-04-16T05:04:21.201Z,101762.58
2019-04-16T05:05:24.555Z,101762.92
2019-04-16T05:06:21.410Z,101763.06
2019-04-16T05:06:29.997Z,101768.36
2019-04-16T05:07:31.392Z,101768.11
2019-04-16T05:08:32.300Z,101768.94
2019-04-16T05:09:35.361Z,101768.86
2019-04-16T05:10:31.615Z,101768.80
2019-04-16T05:11:33.324Z,101769.13
2019-04-16T05:12:34.152Z,101769.47
2019-04-16T05:13:35.157Z,101769.40
2019-04-16T05:14:35.908Z,101769.55
2019-04-16T05:15:36.834Z,101770.32
2019-04-16T05:16:37.818Z,101770.81
2019-04-16T05:17:38.600Z,101771.67
2019-04-16T05:18:41.429Z,101772.42
2019-04-16T05:19:38.570Z,101772.67
2019-04-16T05:20:39.821Z,101773.69
2019-04-16T05:21:40.611Z,101774.34
2019-04-16T05:22:41.376Z,101775.52
2019-04-16T05:23:41.782Z,101775.84
2019-04-16T05:24:42.618Z,101776.52
2019-04-16T05:25:43.463Z,101776.92
2019-04-16T05:26:43.605Z,101777.07
2019-04-16T05:27:44.511Z,101777.41
2019-04-16T05:28:45.778Z,101777.73
2019-04-16T05:29:48.347Z,101777.73
2019-04-16T05:30:45.332Z,101778.84
2019-04-16T05:31:47.267Z,101778.41
2019-04-16T05:32:47.926Z,101779.36
2019-04-16T05:33:48.891Z,101779.77
2019-04-16T05:34:49.836Z,101780.27
2019-04-16T05:35:50.594Z,101781.11
2019-04-16T05:36:51.503Z,101781.88
2019-04-16T05:37:52.294Z,101782.52
2019-04-16T05:38:55.477Z,101783.55
2019-04-16T05:39:52.517Z,101785.13
2019-04-16T05:40:53.594Z,101785.77
2019-04-16T05:41:53.671Z,101786.77
2019-04-16T05:42:58.280Z,101787.59
2019-04-16T05:43:53.627Z,101788.23
2019-04-16T05:44:55.518Z,101788.17
2019-04-16T05:45:56.300Z,101788.50
2019-04-16T05:46:57.038Z,101788.98
2019-04-16T05:47:58.003Z,101788.91
2019-04-16T05:48:58.973Z,101789.02
2019-04-16T05:49:59.821Z,101788.86
2019-04-16T05:51:00.734Z,101788.61
2019-04-16T05:52:02.940Z,101787.86
2019-04-16T05:53:00.942Z,101787.84
2019-04-16T05:54:02.463Z,101787.45
2019-04-16T05:55:03.185Z,101786.98
2019-04-16T05:56:04.158Z,101786.74
2019-04-16T05:57:04.289Z,101786.13
2019-04-16T05:58:05.133Z,101785.81
2019-04-16T05:59:06.104Z,101785.34
2019-04-16T06:00:10.105Z,101785.05
2019-04-16T06:00:15.599Z,101773.84
2019-04-16T06:01:17.202Z,101773.28
2019-04-16T06:02:18.441Z,101773.73
2019-04-16T06:03:20.598Z,101774.26
2019-04-16T06:04:18.783Z,101774.30
2019-04-16T06:05:18.812Z,101774.72
2019-04-16T06:06:20.662Z,101774.89
2019-04-16T06:07:21.650Z,101775.02
2019-04-16T06:08:22.470Z,101774.98
2019-04-16T06:09:23.373Z,101775.30
2019-04-16T06:10:24.191Z,101775.27
2019-04-16T06:11:29.214Z,101775.23
2019-04-16T06:12:24.792Z,101775.80
2019-04-16T06:13:26.266Z,101776.09
2019-04-16T06:14:27.242Z,101776.46
2019-04-16T06:15:28.095Z,101777.13
2019-04-16T06:16:30.874Z,101777.14
2019-04-16T06:17:31.843Z,101777.28
2019-04-16T06:18:28.127Z,101777.92
2019-04-16T06:19:29.956Z,101778.56
2019-04-16T06:20:30.788Z,101778.77
2019-04-16T06:21:31.685Z,101779.20
2019-04-16T06:22:32.605Z,101779.15
2019-04-16T06:23:32.805Z,101779.83
2019-04-16T06:24:35.849Z,101779.88
2019-04-16T06:25:33.256Z,101780.14
2019-04-16T06:26:34.275Z,101780.78
2019-04-16T06:27:35.013Z,101781.09
2019-04-16T06:28:35.075Z,101780.92
2019-04-16T06:29:35.921Z,101780.83
2019-04-16T06:30:36.698Z,101781.25
2019-04-16T06:31:39.140Z,101780.86
2019-04-16T06:32:37.065Z,101780.30
2019-04-16T06:33:37.757Z,101779.69
2019-04-16T06:34:39.174Z,101778.86
2019-04-16T06:35:43.386Z,101778.70
2019-04-16T06:36:39.048Z,101778.03
2019-04-16T06:37:40.746Z,101777.77
2019-04-16T06:38:41.650Z,101777.10
2019-04-16T06:39:41.773Z,101776.66
2019-04-16T06:40:42.643Z,101777.05
2019-04-16T06:41:47.827Z,101776.62
2019-04-16T06:42:43.063Z,101776.14
2019-04-16T06:43:44.807Z,101775.66
2019-04-16T06:44:45.382Z,101774.79
2019-04-16T06:45:45.421Z,101773.95
2019-04-16T06:46:46.230Z,101773.52
2019-04-16T06:47:46.488Z,101773.03
2019-04-16T06:48:47.369Z,101772.45
2019-04-16T06:49:50.805Z,101772.09
2019-04-16T06:50:47.340Z,101771.66
2019-04-16T06:51:48.561Z,101771.50
2019-04-16T06:52:49.867Z,101770.52
2019-04-16T06:53:49.052Z,101770.27
2019-04-16T06:53:59.127Z,101763.58
2019-04-16T06:55:03.598Z,101762.95
2019-04-16T06:56:00.190Z,101762.87
2019-04-16T06:57:02.032Z,101762.52
2019-04-16T06:58:02.797Z,101761.57
2019-04-16T06:59:03.771Z,101761.22
2019-04-16T07:00:07.173Z,101760.55
2019-04-16T07:01:06.839Z,101760.11
2019-04-16T07:02:07.697Z,101759.77
2019-04-16T07:03:06.030Z,101759.46
2019-04-16T07:04:07.996Z,101758.36
2019-04-16T07:05:08.729Z,101757.00
2019-04-16T07:06:09.592Z,101756.48
2019-04-16T07:07:10.385Z,101755.94
2019-04-16T07:08:11.120Z,101755.07
2019-04-16T07:09:11.878Z,101754.33
2019-04-16T07:10:12.213Z,101753.42
2019-04-16T07:11:12.265Z,101752.41
2019-04-16T07:12:13.136Z,101751.53
2019-04-16T07:13:13.942Z,101751.25
2019-04-16T07:14:16.652Z,101750.62
2019-04-16T07:15:14.828Z,101750.22
2019-04-16T07:16:16.783Z,101749.56
2019-04-16T07:17:18.349Z,101748.88
2019-04-16T07:18:16.634Z,101748.27
2019-04-16T07:19:17.269Z,101747.36
2019-04-16T07:20:16.937Z,101746.73
2019-04-16T07:21:18.935Z,101745.76
2019-04-16T07:22:21.326Z,101744.97
2019-04-16T07:23:24.342Z,101744.12
2019-04-16T07:24:22.697Z,101743.44
2019-04-16T07:25:20.555Z,101743.11
2019-04-16T07:26:20.775Z,101742.19
2019-04-16T07:27:21.418Z,101741.02
2019-04-16T07:28:25.835Z,101739.77
2019-04-16T07:29:22.433Z,101739.28
2019-04-16T07:30:23.183Z,101738.07
2019-04-16T07:31:33.568Z,101737.06
2019-04-16T07:32:23.659Z,101736.59
2019-04-16T07:33:24.479Z,101735.86
2019-04-16T07:34:26.400Z,101735.34
2019-04-16T07:35:27.176Z,101734.07
2019-04-16T07:36:27.179Z,101733.07
2019-04-16T07:37:27.530Z,101731.94
2019-04-16T07:38:28.804Z,101731.27
2019-04-16T07:39:30.006Z,101730.23
2019-04-16T07:40:29.450Z,101729.65
2019-04-16T07:41:31.254Z,101728.59
2019-04-16T07:42:32.071Z,101727.36
2019-04-16T07:43:32.869Z,101726.21
2019-04-16T07:44:32.905Z,101725.81
2019-04-16T07:45:32.962Z,101724.47
2019-04-16T07:46:33.371Z,101723.30
2019-04-16T07:47:33.410Z,101722.20
2019-04-16T07:48:33.446Z,101721.02
2019-04-16T07:49:34.328Z,101720.30
2019-04-16T07:50:35.194Z,101718.55
2019-04-16T07:51:36.741Z,101717.79
2019-04-16T07:52:35.940Z,101716.73
2019-04-16T07:53:37.228Z,101715.55
2019-04-16T07:53:47.478Z,101696.05
2019-04-16T07:54:45.831Z,101695.45
2019-04-16T07:55:47.782Z,101695.20
2019-04-16T07:56:48.712Z,101695.89
2019-04-16T07:57:49.639Z,101696.38
2019-04-16T07:58:50.544Z,101696.60
2019-04-16T07:59:51.454Z,101697.14
2019-04-16T08:00:51.817Z,101697.10
2019-04-16T08:01:52.774Z,101697.71
2019-04-16T08:02:54.577Z,101698.66
2019-04-16T08:03:53.503Z,101699.13
2019-04-16T08:04:55.083Z,101700.40
2019-04-16T08:05:55.946Z,101701.37
2019-04-16T08:06:56.465Z,101702.42
2019-04-16T08:07:56.595Z,101703.72
2019-04-16T08:08:58.519Z,101705.01
2019-04-16T08:10:01.351Z,101705.98
2019-04-16T08:10:57.749Z,101707.29
2019-04-16T08:11:59.169Z,101708.00
2019-04-16T08:13:00.530Z,101708.64
2019-04-16T08:13:59.004Z,101709.25
2019-04-16T08:15:12.615Z,101709.44
2019-04-16T08:15:59.867Z,101709.66
2019-04-16T08:17:01.077Z,101709.83
2019-04-16T08:18:01.485Z,101709.00
2019-04-16T08:19:02.078Z,101709.33
2019-04-16T08:20:02.143Z,101708.75
2019-04-16T08:21:10.231Z,101708.44
2019-04-16T08:22:02.287Z,101708.16
2019-04-16T08:23:02.141Z,101707.78
2019-04-16T08:24:03.263Z,101707.70
2019-04-16T08:25:04.175Z,101706.54
2019-04-16T08:26:04.817Z,101705.99
2019-04-16T08:27:03.292Z,101705.30
2019-04-16T08:28:07.022Z,101704.05
2019-04-16T08:29:03.876Z,101703.42
2019-04-16T08:30:05.133Z,101702.66
2019-04-16T08:31:10.493Z,101702.33
2019-04-16T08:32:04.867Z,101701.73
2019-04-16T08:33:06.650Z,101701.09
2019-04-16T08:34:07.275Z,101700.33
2019-04-16T08:35:06.905Z,101699.89
2019-04-16T08:36:07.521Z,101699.91
2019-04-16T08:37:08.781Z,101699.95
2019-04-16T08:38:09.000Z,101700.29
2019-04-16T08:39:10.808Z,101700.19
2019-04-16T08:40:12.262Z,101700.16
2019-04-16T08:41:13.133Z,101699.58
2019-04-16T08:42:11.723Z,101699.68
2019-04-16T08:43:12.528Z,101699.88
2019-04-16T08:44:13.589Z,101699.70
2019-04-16T08:45:14.379Z,101699.59
2019-04-16T08:46:15.139Z,101699.66
2019-04-16T08:47:15.804Z,101699.53
2019-04-16T08:48:18.693Z,101699.38
2019-04-16T08:49:16.115Z,101699.04
2019-04-16T08:50:17.662Z,101698.71
2019-04-16T08:50:26.978Z,101700.43
2019-04-16T08:51:30.846Z,101700.18
2019-04-16T08:52:28.140Z,101699.93
2019-04-16T08:53:29.964Z,101699.76
2019-04-16T08:54:30.692Z,101699.26
2019-04-16T08:55:32.465Z,101699.31
2019-04-16T08:56:32.357Z,101698.78
2019-04-16T08:57:32.017Z,101697.70
2019-04-16T08:58:32.126Z,101697.19
2019-04-16T08:59:32.980Z,101696.26
2019-04-16T09:00:33.664Z,101695.05
2019-04-16T09:01:34.950Z,101694.30
2019-04-16T09:02:35.871Z,101693.28
2019-04-16T09:03:35.325Z,101692.06
2019-04-16T09:04:37.200Z,101692.02
2019-04-16T09:05:41.261Z,101691.13
2019-04-16T09:06:37.870Z,101690.59
2019-04-16T09:07:39.723Z,101689.91
2019-04-16T09:08:40.344Z,101689.53
2019-04-16T09:09:41.244Z,101689.05
2019-04-16T09:10:44.674Z,101688.54
2019-04-16T09:11:41.790Z,101687.37
2019-04-16T09:12:46.124Z,101686.88
2019-04-16T09:13:44.502Z,101685.70
2019-04-16T09:14:44.174Z,101685.70
2019-04-16T09:15:45.881Z,101685.46
2019-04-16T09:16:46.619Z,101685.13
2019-04-16T09:17:47.613Z,101684.54
2019-04-16T09:18:47.882Z,101683.97
2019-04-16T09:19:48.523Z,101684.06
2019-04-16T09:20:49.086Z,101683.34
2019-04-16T09:21:50.466Z,101682.69
2019-04-16T09:22:53.666Z,101681.96
2019-04-16T09:23:49.823Z,101681.34
2019-04-16T09:24:51.690Z,101680.81
2019-04-16T09:25:52.460Z,101681.10
2019-04-16T09:26:52.701Z,101680.83
2019-04-16T09:27:52.576Z,101680.19
2019-04-16T09:28:54.262Z,101679.45
2019-04-16T09:29:55.090Z,101679.32
2019-04-16T09:30:55.877Z,101678.77
2019-04-16T09:31:56.299Z,101678.39
2019-04-16T09:33:00.390Z,101677.78
2019-04-16T09:33:57.503Z,101677.11
2019-04-16T09:35:08.912Z,101676.36
2019-04-16T09:35:58.409Z,101675.26
2019-04-16T09:36:59.479Z,101675.22
2019-04-16T09:37:59.572Z,101674.31
2019-04-16T09:38:59.854Z,101673.68
2019-04-16T09:40:00.021Z,101673.16
2019-04-16T09:41:00.875Z,101672.94
2019-04-16T09:42:01.749Z,101673.44
2019-04-16T09:43:15.770Z,101673.25
2019-04-16T09:44:01.762Z,101672.08
2019-04-16T09:45:05.115Z,101670.81
2019-04-16T09:46:10.059Z,101670.59
2019-04-16T09:47:05.198Z,101670.80
2019-04-16T09:48:04.250Z,101671.23
2019-04-16T09:48:13.231Z,101669.34
2019-04-16T09:49:13.539Z,101668.91
2019-04-16T09:50:15.293Z,101669.00
2019-04-16T09:51:20.766Z,101669.09
2019-04-16T09:52:16.198Z,101669.37
2019-04-16T09:53:16.592Z,101669.23
2019-04-16T09:54:18.340Z,101668.63
2019-04-16T09:55:19.588Z,101668.84
2019-04-16T09:56:19.689Z,101668.62
2019-04-16T09:57:19.326Z,101668.46
2019-04-16T09:58:22.113Z,101667.91
2019-04-16T09:59:20.547Z,101667.92
2019-04-16T10:00:22.175Z,101667.41
2019-04-16T10:01:23.144Z,101666.47
2019-04-16T10:02:23.601Z,101665.45
2019-04-16T10:03:24.080Z,101665.19
2019-04-16T10:04:24.408Z,101664.54
2019-04-16T10:05:26.562Z,101663.89
2019-04-16T10:06:25.050Z,101662.99
2019-04-16T10:07:26.227Z,101661.83
2019-04-16T10:08:29.225Z,101661.71
2019-04-16T10:09:26.245Z,101661.17
2019-04-16T10:10:28.013Z,101660.58
2019-04-16T10:11:27.339Z,101659.72
2019-04-16T10:12:28.536Z,101658.86
2019-04-16T10:13:32.907Z,101658.27
2019-04-16T10:14:29.182Z,101657.72
2019-04-16T10:15:33.485Z,101657.53
2019-04-16T10:16:31.285Z,101657.02
2019-04-16T10:17:31.532Z,101657.22
2019-04-16T10:18:34.718Z,101657.37
2019-04-16T10:19:31.476Z,101657.33
2019-04-16T10:20:32.897Z,101656.98
2019-04-16T10:21:33.202Z,101656.64
2019-04-16T10:22:33.745Z,101656.22
2019-04-16T10:23:34.410Z,101655.70
2019-04-16T10:24:34.546Z,101655.53
2019-04-16T10:25:34.642Z,101655.42
2019-04-16T10:26:34.059Z,101655.05
2019-04-16T10:27:35.864Z,101654.68
2019-04-16T10:28:37.708Z,101654.39
2019-04-16T10:29:36.388Z,101654.08
2019-04-16T10:30:38.045Z,101653.66
2019-04-16T10:31:38.910Z,101653.34
2019-04-16T10:32:39.991Z,101653.50
2019-04-16T10:33:39.361Z,101653.34
2019-04-16T10:34:39.975Z,101652.91
2019-04-16T10:35:39.974Z,101653.63
2019-04-16T10:36:40.419Z,101652.59
2019-04-16T10:37:40.533Z,101652.92
2019-04-16T10:38:41.040Z,101652.70
2019-04-16T10:39:41.318Z,101652.77
2019-04-16T10:40:41.362Z,101652.39
2019-04-16T10:41:42.305Z,101651.56
2019-04-16T10:42:42.963Z,101651.00
2019-04-16T10:42:51.520Z,101638.52
2019-04-16T10:43:51.542Z,101638.27
2019-04-16T10:44:52.961Z,101638.34
2019-04-16T10:45:53.827Z,101638.83
2019-04-16T10:46:53.981Z,101639.05
2019-04-16T10:47:54.201Z,101639.34
2019-04-16T10:48:54.463Z,101638.34
2019-04-16T10:49:55.715Z,101638.34
2019-04-16T10:50:54.904Z,101637.96
2019-04-16T10:51:57.646Z,101638.08
2019-04-16T10:52:57.295Z,101637.52
2019-04-16T10:54:05.917Z,101637.05
2019-04-16T10:54:57.829Z,101636.20
2019-04-16T10:55:59.385Z,101635.58
2019-04-16T10:57:00.293Z,101635.08
2019-04-16T10:57:59.519Z,101635.02
2019-04-16T10:59:00.928Z,101634.77
2019-04-16T11:00:01.730Z,101634.11
2019-04-16T11:01:00.767Z,101633.42
2019-04-16T11:02:01.554Z,101633.45
2019-04-16T11:03:02.963Z,101632.63
2019-04-16T11:04:04.830Z,101632.38
2019-04-16T11:05:03.287Z,101631.65
2019-04-16T11:06:03.892Z,101630.81
2019-04-16T11:07:05.777Z,101630.00
2019-04-16T11:08:07.371Z,101629.23
2019-04-16T11:09:06.215Z,101628.30
2019-04-16T11:10:07.978Z,101627.84
2019-04-16T11:11:07.739Z,101627.48
2019-04-16T11:12:09.546Z,101626.47
2019-04-16T11:13:09.741Z,101626.47
2019-04-16T11:14:10.000Z,101625.48
2019-04-16T11:15:09.837Z,101624.91
2019-04-16T11:16:11.119Z,101623.89
2019-04-16T11:17:10.547Z,101623.45
2019-04-16T11:18:10.612Z,101622.70
2019-04-16T11:19:12.392Z,101621.72
2019-04-16T11:20:13.286Z,101621.50
2019-04-16T11:21:13.281Z,101621.45